sensor_id;sensor_type;location;lat;lon;timestamp;P1;durP1;ratioP1;P2;durP2;ratioP2
10096;SDS011;5087;42.662;23.466;2023-02-24T00:01:11;0.20;;;0.20;;
10096;SDS011;5087;42.662;23.466;2023-02-24T00:03:42;0.10;;;0.10;;
10096;SDS011;5087;42.662;23.466;2023-02-24T00:06:10;0.50;;;0.50;;
10096;SDS011;5087;42.662;23.466;2023-02-24T00:08:37;0.23;;;0.23;;
10096;SDS011;5087;42.662;23.466;2023-02-24T00:11:07;0.10;;;0.10;;
10096;SDS011;5087;42.662;23.466;2023-02-24T00:13:37;0.00;;;0.00;;
10096;SDS011;5087;42.662;23.466;2023-02-24T00:16:04;0.00;;;0.00;;
10096;SDS011;5087;42.662;23.466;2023-02-24T00:18:34;0.43;;;0.43;;
10096;SDS011;5087;42.662;23.466;2023-02-24T00:21:02;8.10;;;4.73;;
10096;SDS011;5087;42.662;23.466;2023-02-24T00:23:34;0.00;;;0.00;;
10096;SDS011;5087;42.662;23.466;2023-02-24T00:26:03;0.00;;;0.00;;
10096;SDS011;5087;42.662;23.466;2023-02-24T00:28:31;0.20;;;0.20;;
10096;SDS011;5087;42.662;23.466;2023-02-24T00:31:01;0.60;;;0.60;;
10096;SDS011;5087;42.662;23.466;2023-02-24T00:33:30;0.20;;;0.20;;
10096;SDS011;5087;42.662;23.466;2023-02-24T00:36:07;0.10;;;0.10;;
10096;SDS011;5087;42.662;23.466;2023-02-24T00:38:36;0.00;;;0.00;;
10096;SDS011;5087;42.662;23.466;2023-02-24T00:41:10;0.00;;;0.00;;
10096;SDS011;5087;42.662;23.466;2023-02-24T00:43:39;0.67;;;0.67;;
10096;SDS011;5087;42.662;23.466;2023-02-24T00:46:11;0.00;;;0.00;;
10096;SDS011;5087;42.662;23.466;2023-02-24T00:48:41;0.00;;;0.00;;
10096;SDS011;5087;42.662;23.466;2023-02-24T00:51:14;0.00;;;0.00;;
10096;SDS011;5087;42.662;23.466;2023-02-24T00:53:47;0.63;;;0.63;;
10096;SDS011;5087;42.662;23.466;2023-02-24T00:56:16;0.10;;;0.10;;
10096;SDS011;5087;42.662;23.466;2023-02-24T00:58:44;0.00;;;0.00;;
10096;SDS011;5087;42.662;23.466;2023-02-24T01:01:12;0.20;;;0.20;;
10096;SDS011;5087;42.662;23.466;2023-02-24T01:03:41;0.00;;;0.00;;
10096;SDS011;5087;42.662;23.466;2023-02-24T01:06:09;0.00;;;0.00;;
10096;SDS011;5087;42.662;23.466;2023-02-24T01:08:39;0.00;;;0.00;;
10096;SDS011;5087;42.662;23.466;2023-02-24T01:11:12;0.00;;;0.00;;
10096;SDS011;5087;42.662;23.466;2023-02-24T01:13:56;0.00;;;0.00;;
10096;SDS011;5087;42.662;23.466;2023-02-24T01:16:24;0.30;;;0.30;;
10096;SDS011;5087;42.662;23.466;2023-02-24T01:18:51;0.10;;;0.10;;
10096;SDS011;5087;42.662;23.466;2023-02-24T01:21:19;0.10;;;0.10;;
10096;SDS011;5087;42.662;23.466;2023-02-24T01:23:52;0.07;;;0.07;;
10096;SDS011;5087;42.662;23.466;2023-02-24T01:26:19;0.40;;;0.40;;
10096;SDS011;5087;42.662;23.466;2023-02-24T01:28:47;0.10;;;0.10;;
10096;SDS011;5087;42.662;23.466;2023-02-24T01:31:16;0.10;;;0.10;;
10096;SDS011;5087;42.662;23.466;2023-02-24T01:33:44;0.10;;;0.10;;
10096;SDS011;5087;42.662;23.466;2023-02-24T01:36:14;0.20;;;0.20;;
10096;SDS011;5087;42.662;23.466;2023-02-24T01:38:44;0.00;;;0.00;;
10096;SDS011;5087;42.662;23.466;2023-02-24T01:41:17;0.00;;;0.00;;
10096;SDS011;5087;42.662;23.466;2023-02-24T01:43:57;0.07;;;0.07;;
10096;SDS011;5087;42.662;23.466;2023-02-24T01:46:28;0.10;;;0.10;;
10096;SDS011;5087;42.662;23.466;2023-02-24T01:48:59;0.10;;;0.10;;
10096;SDS011;5087;42.662;23.466;2023-02-24T01:51:33;0.10;;;0.10;;
10096;SDS011;5087;42.662;23.466;2023-02-24T01:54:06;0.20;;;0.20;;
10096;SDS011;5087;42.662;23.466;2023-02-24T01:56:39;0.10;;;0.10;;
10096;SDS011;5087;42.662;23.466;2023-02-24T01:59:08;0.10;;;0.10;;
10096;SDS011;5087;42.662;23.466;2023-02-24T02:01:37;0.10;;;0.10;;
10096;SDS011;5087;42.662;23.466;2023-02-24T02:04:08;0.00;;;0.00;;
10096;SDS011;5087;42.662;23.466;2023-02-24T02:06:41;2.40;;;0.53;;
10096;SDS011;5087;42.662;23.466;2023-02-24T02:09:10;0.03;;;0.03;;
10096;SDS011;5087;42.662;23.466;2023-02-24T02:11:41;0.17;;;0.17;;
10096;SDS011;5087;42.662;23.466;2023-02-24T02:14:13;0.20;;;0.20;;
10096;SDS011;5087;42.662;23.466;2023-02-24T02:16:46;0.10;;;0.10;;
10096;SDS011;5087;42.662;23.466;2023-02-24T02:19:43;0.10;;;0.10;;
10096;SDS011;5087;42.662;23.466;2023-02-24T02:22:25;0.30;;;0.30;;
10096;SDS011;5087;42.662;23.466;2023-02-24T02:25:17;0.13;;;0.13;;
10096;SDS011;5087;42.662;23.466;2023-02-24T02:28:10;0.10;;;0.10;;
10096;SDS011;5087;42.662;23.466;2023-02-24T02:31:05;0.10;;;0.10;;
10096;SDS011;5087;42.662;23.466;2023-02-24T02:34:06;0.20;;;0.20;;
10096;SDS011;5087;42.662;23.466;2023-02-24T02:36:41;0.10;;;0.10;;
10096;SDS011;5087;42.662;23.466;2023-02-24T02:39:21;0.13;;;0.13;;
10096;SDS011;5087;42.662;23.466;2023-02-24T02:42:00;0.20;;;0.20;;
10096;SDS011;5087;42.662;23.466;2023-02-24T02:44:41;0.70;;;0.70;;
10096;SDS011;5087;42.662;23.466;2023-02-24T02:47:22;0.67;;;0.67;;
10096;SDS011;5087;42.662;23.466;2023-02-24T02:49:56;0.20;;;0.20;;
10096;SDS011;5087;42.662;23.466;2023-02-24T02:52:32;0.20;;;0.20;;
10096;SDS011;5087;42.662;23.466;2023-02-24T02:55:07;0.20;;;0.20;;
10096;SDS011;5087;42.662;23.466;2023-02-24T02:57:39;0.50;;;0.50;;
10096;SDS011;5087;42.662;23.466;2023-02-24T03:00:12;0.20;;;0.20;;
10096;SDS011;5087;42.662;23.466;2023-02-24T03:02:46;0.20;;;0.20;;
10096;SDS011;5087;42.662;23.466;2023-02-24T03:05:18;0.30;;;0.30;;
10096;SDS011;5087;42.662;23.466;2023-02-24T03:07:54;0.30;;;0.30;;
10096;SDS011;5087;42.662;23.466;2023-02-24T03:10:24;0.10;;;0.10;;
10096;SDS011;5087;42.662;23.466;2023-02-24T03:12:57;0.13;;;0.13;;
10096;SDS011;5087;42.662;23.466;2023-02-24T03:15:27;0.10;;;0.10;;
10096;SDS011;5087;42.662;23.466;2023-02-24T03:17:58;0.20;;;0.20;;
10096;SDS011;5087;42.662;23.466;2023-02-24T03:20:38;0.20;;;0.20;;
10096;SDS011;5087;42.662;23.466;2023-02-24T03:23:09;1.40;;;1.40;;
10096;SDS011;5087;42.662;23.466;2023-02-24T03:25:43;0.17;;;0.17;;
10096;SDS011;5087;42.662;23.466;2023-02-24T03:28:17;0.30;;;0.30;;
10096;SDS011;5087;42.662;23.466;2023-02-24T03:30:50;0.50;;;0.50;;
10096;SDS011;5087;42.662;23.466;2023-02-24T03:33:25;0.40;;;0.40;;
10096;SDS011;5087;42.662;23.466;2023-02-24T03:35:58;0.30;;;0.30;;
10096;SDS011;5087;42.662;23.466;2023-02-24T03:38:27;0.37;;;0.37;;
10096;SDS011;5087;42.662;23.466;2023-02-24T03:41:03;0.40;;;0.40;;
10096;SDS011;5087;42.662;23.466;2023-02-24T03:43:40;0.50;;;0.50;;
10096;SDS011;5087;42.662;23.466;2023-02-24T03:46:10;0.30;;;0.30;;
10096;SDS011;5087;42.662;23.466;2023-02-24T03:48:40;0.30;;;0.30;;
10096;SDS011;5087;42.662;23.466;2023-02-24T03:51:14;0.30;;;0.30;;
10096;SDS011;5087;42.662;23.466;2023-02-24T03:53:49;0.87;;;0.43;;
10096;SDS011;5087;42.662;23.466;2023-02-24T03:56:26;0.40;;;0.40;;
10096;SDS011;5087;42.662;23.466;2023-02-24T03:59:03;0.33;;;0.33;;
10096;SDS011;5087;42.662;23.466;2023-02-24T04:01:41;0.30;;;0.30;;
10096;SDS011;5087;42.662;23.466;2023-02-24T04:04:18;0.40;;;0.40;;
10096;SDS011;5087;42.662;23.466;2023-02-24T04:07:08;0.20;;;0.20;;
10096;SDS011;5087;42.662;23.466;2023-02-24T04:09:42;0.30;;;0.30;;
10096;SDS011;5087;42.662;23.466;2023-02-24T04:12:17;0.20;;;0.20;;
10096;SDS011;5087;42.662;23.466;2023-02-24T04:15:01;0.20;;;0.20;;
10096;SDS011;5087;42.662;23.466;2023-02-24T04:17:34;0.30;;;0.30;;
10096;SDS011;5087;42.662;23.466;2023-02-24T04:20:10;0.20;;;0.20;;
10096;SDS011;5087;42.662;23.466;2023-02-24T04:22:48;0.40;;;0.40;;
10096;SDS011;5087;42.662;23.466;2023-02-24T04:25:20;0.40;;;0.40;;
10096;SDS011;5087;42.662;23.466;2023-02-24T04:27:51;0.20;;;0.20;;
10096;SDS011;5087;42.662;23.466;2023-02-24T04:30:21;0.30;;;0.30;;
10096;SDS011;5087;42.662;23.466;2023-02-24T04:32:51;0.20;;;0.20;;
10096;SDS011;5087;42.662;23.466;2023-02-24T04:35:19;0.10;;;0.10;;
10096;SDS011;5087;42.662;23.466;2023-02-24T04:37:50;0.20;;;0.20;;
10096;SDS011;5087;42.662;23.466;2023-02-24T04:40:19;0.10;;;0.10;;
10096;SDS011;5087;42.662;23.466;2023-02-24T04:42:48;5.30;;;0.70;;
10096;SDS011;5087;42.662;23.466;2023-02-24T04:45:19;0.10;;;0.10;;
10096;SDS011;5087;42.662;23.466;2023-02-24T04:47:49;0.10;;;0.10;;
10096;SDS011;5087;42.662;23.466;2023-02-24T04:50:21;0.10;;;0.10;;
10096;SDS011;5087;42.662;23.466;2023-02-24T04:52:51;0.10;;;0.10;;
10096;SDS011;5087;42.662;23.466;2023-02-24T04:55:21;0.17;;;0.17;;
10096;SDS011;5087;42.662;23.466;2023-02-24T04:57:51;0.10;;;0.10;;
10096;SDS011;5087;42.662;23.466;2023-02-24T05:00:18;0.10;;;0.10;;
10096;SDS011;5087;42.662;23.466;2023-02-24T05:02:47;0.10;;;0.10;;
10096;SDS011;5087;42.662;23.466;2023-02-24T05:05:16;0.10;;;0.10;;
10096;SDS011;5087;42.662;23.466;2023-02-24T05:07:51;0.43;;;0.43;;
10096;SDS011;5087;42.662;23.466;2023-02-24T05:10:27;0.10;;;0.10;;
10096;SDS011;5087;42.662;23.466;2023-02-24T05:12:55;0.10;;;0.10;;
10096;SDS011;5087;42.662;23.466;2023-02-24T05:15:23;0.10;;;0.10;;
10096;SDS011;5087;42.662;23.466;2023-02-24T05:17:56;0.00;;;0.00;;
10096;SDS011;5087;42.662;23.466;2023-02-24T05:20:24;0.10;;;0.10;;
10096;SDS011;5087;42.662;23.466;2023-02-24T05:23:10;0.10;;;0.10;;
10096;SDS011;5087;42.662;23.466;2023-02-24T05:25:41;0.10;;;0.10;;
10096;SDS011;5087;42.662;23.466;2023-02-24T05:28:09;0.10;;;0.10;;
10096;SDS011;5087;42.662;23.466;2023-02-24T05:30:36;0.10;;;0.10;;
10096;SDS011;5087;42.662;23.466;2023-02-24T05:33:03;0.00;;;0.00;;
10096;SDS011;5087;42.662;23.466;2023-02-24T05:35:34;0.00;;;0.00;;
10096;SDS011;5087;42.662;23.466;2023-02-24T05:38:02;0.00;;;0.00;;
10096;SDS011;5087;42.662;23.466;2023-02-24T05:40:33;0.43;;;0.43;;
10096;SDS011;5087;42.662;23.466;2023-02-24T05:43:09;0.10;;;0.10;;
10096;SDS011;5087;42.662;23.466;2023-02-24T05:45:40;0.10;;;0.10;;
10096;SDS011;5087;42.662;23.466;2023-02-24T05:48:07;0.10;;;0.10;;
10096;SDS011;5087;42.662;23.466;2023-02-24T05:50:35;0.10;;;0.10;;
10096;SDS011;5087;42.662;23.466;2023-02-24T05:53:04;0.10;;;0.10;;
10096;SDS011;5087;42.662;23.466;2023-02-24T05:55:35;0.10;;;0.10;;
10096;SDS011;5087;42.662;23.466;2023-02-24T05:58:03;0.20;;;0.20;;
10096;SDS011;5087;42.662;23.466;2023-02-24T06:00:32;0.00;;;0.00;;
10096;SDS011;5087;42.662;23.466;2023-02-24T06:03:03;0.00;;;0.00;;
10096;SDS011;5087;42.662;23.466;2023-02-24T06:05:34;0.00;;;0.00;;
10096;SDS011;5087;42.662;23.466;2023-02-24T06:08:03;0.10;;;0.10;;
10096;SDS011;5087;42.662;23.466;2023-02-24T06:10:37;0.00;;;0.00;;
10096;SDS011;5087;42.662;23.466;2023-02-24T06:13:08;0.00;;;0.00;;
10096;SDS011;5087;42.662;23.466;2023-02-24T06:15:37;0.10;;;0.10;;
10096;SDS011;5087;42.662;23.466;2023-02-24T06:18:06;0.10;;;0.10;;
10096;SDS011;5087;42.662;23.466;2023-02-24T06:20:45;0.10;;;0.10;;
10096;SDS011;5087;42.662;23.466;2023-02-24T06:23:15;0.10;;;0.10;;
10096;SDS011;5087;42.662;23.466;2023-02-24T06:25:45;0.57;;;0.57;;
10096;SDS011;5087;42.662;23.466;2023-02-24T06:28:13;0.10;;;0.10;;
10096;SDS011;5087;42.662;23.466;2023-02-24T06:30:40;0.00;;;0.00;;
10096;SDS011;5087;42.662;23.466;2023-02-24T06:33:07;0.00;;;0.00;;
10096;SDS011;5087;42.662;23.466;2023-02-24T06:35:35;0.10;;;0.10;;
10096;SDS011;5087;42.662;23.466;2023-02-24T06:38:04;0.10;;;0.10;;
10096;SDS011;5087;42.662;23.466;2023-02-24T06:40:31;0.10;;;0.10;;
10096;SDS011;5087;42.662;23.466;2023-02-24T06:43:02;0.00;;;0.00;;
10096;SDS011;5087;42.662;23.466;2023-02-24T06:45:29;0.10;;;0.10;;
10096;SDS011;5087;42.662;23.466;2023-02-24T06:47:57;0.20;;;0.20;;
10096;SDS011;5087;42.662;23.466;2023-02-24T06:50:27;0.30;;;0.30;;
10096;SDS011;5087;42.662;23.466;2023-02-24T06:52:55;0.20;;;0.20;;
10096;SDS011;5087;42.662;23.466;2023-02-24T06:55:25;0.20;;;0.20;;
10096;SDS011;5087;42.662;23.466;2023-02-24T06:57:56;0.20;;;0.20;;
10096;SDS011;5087;42.662;23.466;2023-02-24T07:00:30;0.20;;;0.20;;
10096;SDS011;5087;42.662;23.466;2023-02-24T07:03:04;0.50;;;0.50;;
10096;SDS011;5087;42.662;23.466;2023-02-24T07:05:40;0.30;;;0.30;;
10096;SDS011;5087;42.662;23.466;2023-02-24T07:08:13;0.20;;;0.20;;
10096;SDS011;5087;42.662;23.466;2023-02-24T07:10:41;0.37;;;0.37;;
10096;SDS011;5087;42.662;23.466;2023-02-24T07:13:09;0.10;;;0.10;;
10096;SDS011;5087;42.662;23.466;2023-02-24T07:15:40;0.20;;;0.20;;
10096;SDS011;5087;42.662;23.466;2023-02-24T07:18:13;0.20;;;0.20;;
10096;SDS011;5087;42.662;23.466;2023-02-24T07:20:41;0.30;;;0.30;;
10096;SDS011;5087;42.662;23.466;2023-02-24T07:23:10;0.20;;;0.20;;
10096;SDS011;5087;42.662;23.466;2023-02-24T07:25:42;0.27;;;0.27;;
10096;SDS011;5087;42.662;23.466;2023-02-24T07:28:10;0.20;;;0.20;;
10096;SDS011;5087;42.662;23.466;2023-02-24T07:30:41;0.80;;;0.80;;
10096;SDS011;5087;42.662;23.466;2023-02-24T07:33:10;0.20;;;0.20;;
10096;SDS011;5087;42.662;23.466;2023-02-24T07:35:38;0.20;;;0.20;;
10096;SDS011;5087;42.662;23.466;2023-02-24T07:38:06;0.20;;;0.20;;
10096;SDS011;5087;42.662;23.466;2023-02-24T07:40:35;0.30;;;0.30;;
10096;SDS011;5087;42.662;23.466;2023-02-24T07:43:05;0.30;;;0.30;;
10096;SDS011;5087;42.662;23.466;2023-02-24T07:45:32;0.40;;;0.40;;
10096;SDS011;5087;42.662;23.466;2023-02-24T07:48:05;0.40;;;0.40;;
10096;SDS011;5087;42.662;23.466;2023-02-24T07:50:32;0.57;;;0.57;;
10096;SDS011;5087;42.662;23.466;2023-02-24T07:53:02;0.50;;;0.50;;
10096;SDS011;5087;42.662;23.466;2023-02-24T07:55:30;0.50;;;0.50;;
10096;SDS011;5087;42.662;23.466;2023-02-24T07:58:00;0.50;;;0.50;;
10096;SDS011;5087;42.662;23.466;2023-02-24T08:00:30;0.40;;;0.40;;
10096;SDS011;5087;42.662;23.466;2023-02-24T08:03:15;0.40;;;0.40;;
10096;SDS011;5087;42.662;23.466;2023-02-24T08:05:43;0.40;;;0.40;;
10096;SDS011;5087;42.662;23.466;2023-02-24T08:08:10;0.30;;;0.30;;
10096;SDS011;5087;42.662;23.466;2023-02-24T08:10:41;0.40;;;0.40;;
10096;SDS011;5087;42.662;23.466;2023-02-24T08:13:09;0.30;;;0.30;;
10096;SDS011;5087;42.662;23.466;2023-02-24T08:15:36;0.30;;;0.30;;
10096;SDS011;5087;42.662;23.466;2023-02-24T08:18:03;0.37;;;0.37;;
10096;SDS011;5087;42.662;23.466;2023-02-24T08:20:32;0.30;;;0.30;;
10096;SDS011;5087;42.662;23.466;2023-02-24T08:23:19;0.40;;;0.40;;
10096;SDS011;5087;42.662;23.466;2023-02-24T08:25:47;0.50;;;0.50;;
10096;SDS011;5087;42.662;23.466;2023-02-24T08:28:15;3.43;;;3.23;;
10096;SDS011;5087;42.662;23.466;2023-02-24T08:30:47;0.70;;;0.70;;
10096;SDS011;5087;42.662;23.466;2023-02-24T08:33:17;0.60;;;0.60;;
10096;SDS011;5087;42.662;23.466;2023-02-24T08:35:50;0.60;;;0.60;;
10096;SDS011;5087;42.662;23.466;2023-02-24T08:38:28;0.73;;;0.73;;
10096;SDS011;5087;42.662;23.466;2023-02-24T08:41:10;0.60;;;0.60;;
10096;SDS011;5087;42.662;23.466;2023-02-24T08:43:45;0.60;;;0.60;;
10096;SDS011;5087;42.662;23.466;2023-02-24T08:46:14;0.53;;;0.53;;
10096;SDS011;5087;42.662;23.466;2023-02-24T08:48:51;1.43;;;1.43;;
10096;SDS011;5087;42.662;23.466;2023-02-24T08:51:23;0.80;;;0.80;;
10096;SDS011;5087;42.662;23.466;2023-02-24T08:53:55;2.37;;;2.23;;
10096;SDS011;5087;42.662;23.466;2023-02-24T08:56:24;0.80;;;0.80;;
10096;SDS011;5087;42.662;23.466;2023-02-24T08:58:54;2.40;;;2.20;;
10096;SDS011;5087;42.662;23.466;2023-02-24T09:01:30;2.90;;;2.70;;
10096;SDS011;5087;42.662;23.466;2023-02-24T09:04:04;0.97;;;0.97;;
10096;SDS011;5087;42.662;23.466;2023-02-24T09:06:37;2.17;;;2.10;;
10096;SDS011;5087;42.662;23.466;2023-02-24T09:09:08;0.80;;;0.80;;
10096;SDS011;5087;42.662;23.466;2023-02-24T09:11:43;0.97;;;0.97;;
10096;SDS011;5087;42.662;23.466;2023-02-24T09:14:11;1.10;;;1.10;;
10096;SDS011;5087;42.662;23.466;2023-02-24T09:16:43;2.33;;;2.23;;
10096;SDS011;5087;42.662;23.466;2023-02-24T09:19:31;1.10;;;1.10;;
10096;SDS011;5087;42.662;23.466;2023-02-24T09:22:21;1.13;;;1.13;;
10096;SDS011;5087;42.662;23.466;2023-02-24T09:25:13;1.20;;;1.20;;
10096;SDS011;5087;42.662;23.466;2023-02-24T09:27:49;1.60;;;1.60;;
10096;SDS011;5087;42.662;23.466;2023-02-24T09:30:20;1.60;;;1.60;;
10096;SDS011;5087;42.662;23.466;2023-02-24T09:33:09;1.90;;;1.90;;
10096;SDS011;5087;42.662;23.466;2023-02-24T09:35:44;2.40;;;2.40;;
10096;SDS011;5087;42.662;23.466;2023-02-24T09:38:17;1.90;;;1.90;;
10096;SDS011;5087;42.662;23.466;2023-02-24T09:41:07;2.10;;;2.10;;
10096;SDS011;5087;42.662;23.466;2023-02-24T09:43:54;2.50;;;2.50;;
10096;SDS011;5087;42.662;23.466;2023-02-24T09:46:32;3.17;;;3.07;;
10096;SDS011;5087;42.662;23.466;2023-02-24T09:49:07;2.00;;;2.00;;
10096;SDS011;5087;42.662;23.466;2023-02-24T09:51:41;2.00;;;2.00;;
10096;SDS011;5087;42.662;23.466;2023-02-24T09:54:12;2.30;;;2.30;;
10096;SDS011;5087;42.662;23.466;2023-02-24T09:56:45;2.00;;;2.00;;
10096;SDS011;5087;42.662;23.466;2023-02-24T09:59:34;2.20;;;2.20;;
10096;SDS011;5087;42.662;23.466;2023-02-24T10:02:31;1.90;;;1.90;;
10096;SDS011;5087;42.662;23.466;2023-02-24T10:05:09;1.90;;;1.90;;
10096;SDS011;5087;42.662;23.466;2023-02-24T10:07:47;2.30;;;2.30;;
10096;SDS011;5087;42.662;23.466;2023-02-24T10:10:19;2.70;;;2.70;;
10096;SDS011;5087;42.662;23.466;2023-02-24T10:12:54;3.00;;;3.00;;
10096;SDS011;5087;42.662;23.466;2023-02-24T10:15:27;2.70;;;2.70;;
10096;SDS011;5087;42.662;23.466;2023-02-24T10:18:27;3.30;;;3.20;;
10096;SDS011;5087;42.662;23.466;2023-02-24T10:20:59;2.90;;;2.90;;
10096;SDS011;5087;42.662;23.466;2023-02-24T10:23:38;2.83;;;2.83;;
10096;SDS011;5087;42.662;23.466;2023-02-24T10:26:25;2.10;;;2.10;;
10096;SDS011;5087;42.662;23.466;2023-02-24T10:29:12;2.30;;;2.30;;
10096;SDS011;5087;42.662;23.466;2023-02-24T10:32:06;2.50;;;2.50;;
10096;SDS011;5087;42.662;23.466;2023-02-24T10:34:47;2.50;;;2.50;;
10096;SDS011;5087;42.662;23.466;2023-02-24T10:37:16;2.40;;;2.40;;
10096;SDS011;5087;42.662;23.466;2023-02-24T10:39:47;2.60;;;2.60;;
10096;SDS011;5087;42.662;23.466;2023-02-24T10:42:24;2.30;;;2.30;;
10096;SDS011;5087;42.662;23.466;2023-02-24T10:45:04;2.50;;;2.50;;
10096;SDS011;5087;42.662;23.466;2023-02-24T10:47:38;2.40;;;2.40;;
10096;SDS011;5087;42.662;23.466;2023-02-24T10:50:19;2.40;;;2.40;;
10096;SDS011;5087;42.662;23.466;2023-02-24T10:52:49;2.83;;;2.83;;
10096;SDS011;5087;42.662;23.466;2023-02-24T10:55:35;2.40;;;2.40;;
10096;SDS011;5087;42.662;23.466;2023-02-24T10:58:21;2.50;;;2.50;;
10096;SDS011;5087;42.662;23.466;2023-02-24T11:01:06;2.90;;;2.90;;
10096;SDS011;5087;42.662;23.466;2023-02-24T11:03:50;3.10;;;3.10;;
10096;SDS011;5087;42.662;23.466;2023-02-24T11:06:38;3.40;;;3.40;;
10096;SDS011;5087;42.662;23.466;2023-02-24T11:09:20;3.50;;;3.50;;
10096;SDS011;5087;42.662;23.466;2023-02-24T11:12:02;3.40;;;3.40;;
10096;SDS011;5087;42.662;23.466;2023-02-24T11:14:52;3.97;;;3.90;;
10096;SDS011;5087;42.662;23.466;2023-02-24T11:17:44;3.73;;;3.73;;
10096;SDS011;5087;42.662;23.466;2023-02-24T11:20:18;3.77;;;3.77;;
10096;SDS011;5087;42.662;23.466;2023-02-24T11:22:52;3.57;;;3.57;;
10096;SDS011;5087;42.662;23.466;2023-02-24T11:25:23;3.60;;;3.60;;
10096;SDS011;5087;42.662;23.466;2023-02-24T11:27:53;4.20;;;4.10;;
10096;SDS011;5087;42.662;23.466;2023-02-24T11:30:25;4.90;;;4.80;;
10096;SDS011;5087;42.662;23.466;2023-02-24T11:33:19;4.70;;;4.60;;
10096;SDS011;5087;42.662;23.466;2023-02-24T11:35:58;4.40;;;4.30;;
10096;SDS011;5087;42.662;23.466;2023-02-24T11:38:37;4.50;;;4.40;;
10096;SDS011;5087;42.662;23.466;2023-02-24T11:41:09;3.93;;;3.87;;
10096;SDS011;5087;42.662;23.466;2023-02-24T11:43:53;4.30;;;4.20;;
10096;SDS011;5087;42.662;23.466;2023-02-24T11:46:28;4.20;;;4.10;;
10096;SDS011;5087;42.662;23.466;2023-02-24T11:49:06;4.30;;;4.20;;
10096;SDS011;5087;42.662;23.466;2023-02-24T11:51:46;4.30;;;4.20;;
10096;SDS011;5087;42.662;23.466;2023-02-24T11:54:15;4.20;;;4.10;;
10096;SDS011;5087;42.662;23.466;2023-02-24T11:56:44;4.30;;;4.20;;
10096;SDS011;5087;42.662;23.466;2023-02-24T11:59:15;4.57;;;4.47;;
10096;SDS011;5087;42.662;23.466;2023-02-24T12:01:49;4.40;;;4.30;;
10096;SDS011;5087;42.662;23.466;2023-02-24T12:04:22;4.40;;;4.30;;
10096;SDS011;5087;42.662;23.466;2023-02-24T12:06:55;4.70;;;4.60;;
10096;SDS011;5087;42.662;23.466;2023-02-24T12:09:26;4.40;;;4.30;;
10096;SDS011;5087;42.662;23.466;2023-02-24T12:11:57;4.50;;;4.40;;
10096;SDS011;5087;42.662;23.466;2023-02-24T12:14:32;4.60;;;4.50;;
10096;SDS011;5087;42.662;23.466;2023-02-24T12:17:09;4.70;;;4.60;;
10096;SDS011;5087;42.662;23.466;2023-02-24T12:19:51;4.40;;;4.30;;
10096;SDS011;5087;42.662;23.466;2023-02-24T12:22:25;4.53;;;4.43;;
10096;SDS011;5087;42.662;23.466;2023-02-24T12:24:59;4.80;;;4.70;;
10096;SDS011;5087;42.662;23.466;2023-02-24T12:27:36;4.20;;;4.10;;
10096;SDS011;5087;42.662;23.466;2023-02-24T12:33:18;4.70;;;4.60;;
10096;SDS011;5087;42.662;23.466;2023-02-24T12:35:59;4.70;;;4.60;;
10096;SDS011;5087;42.662;23.466;2023-02-24T12:38:37;5.13;;;5.03;;
10096;SDS011;5087;42.662;23.466;2023-02-24T12:41:26;4.83;;;4.73;;
10096;SDS011;5087;42.662;23.466;2023-02-24T12:44:07;4.80;;;4.70;;
10096;SDS011;5087;42.662;23.466;2023-02-24T12:46:44;4.90;;;4.80;;
10096;SDS011;5087;42.662;23.466;2023-02-24T12:52:19;4.70;;;4.60;;
10096;SDS011;5087;42.662;23.466;2023-02-24T12:54:57;4.80;;;4.70;;
10096;SDS011;5087;42.662;23.466;2023-02-24T12:57:35;4.80;;;4.70;;
10096;SDS011;5087;42.662;23.466;2023-02-24T13:00:10;4.47;;;4.37;;
10096;SDS011;5087;42.662;23.466;2023-02-24T13:02:46;4.60;;;4.50;;
10096;SDS011;5087;42.662;23.466;2023-02-24T13:05:23;4.60;;;4.50;;
10096;SDS011;5087;42.662;23.466;2023-02-24T13:08:06;4.90;;;4.80;;
10096;SDS011;5087;42.662;23.466;2023-02-24T13:10:42;4.70;;;4.60;;
10096;SDS011;5087;42.662;23.466;2023-02-24T13:13:17;4.60;;;4.50;;
10096;SDS011;5087;42.662;23.466;2023-02-24T13:15:51;4.37;;;4.27;;
10096;SDS011;5087;42.662;23.466;2023-02-24T13:18:23;4.40;;;4.30;;
10096;SDS011;5087;42.662;23.466;2023-02-24T13:21:00;4.67;;;4.57;;
10096;SDS011;5087;42.662;23.466;2023-02-24T13:23:30;4.57;;;4.47;;
10096;SDS011;5087;42.662;23.466;2023-02-24T13:25:58;4.80;;;4.70;;
10096;SDS011;5087;42.662;23.466;2023-02-24T13:28:26;4.67;;;4.57;;
10096;SDS011;5087;42.662;23.466;2023-02-24T13:30:59;5.07;;;4.97;;
10096;SDS011;5087;42.662;23.466;2023-02-24T13:33:28;5.17;;;5.07;;
10096;SDS011;5087;42.662;23.466;2023-02-24T13:36:06;4.70;;;4.60;;
10096;SDS011;5087;42.662;23.466;2023-02-24T13:38:38;5.30;;;5.20;;
10096;SDS011;5087;42.662;23.466;2023-02-24T13:41:08;4.67;;;4.57;;
10096;SDS011;5087;42.662;23.466;2023-02-24T13:43:54;4.70;;;4.60;;
10096;SDS011;5087;42.662;23.466;2023-02-24T13:46:23;6.37;;;6.17;;
10096;SDS011;5087;42.662;23.466;2023-02-24T13:48:59;5.30;;;5.20;;
10096;SDS011;5087;42.662;23.466;2023-02-24T13:51:45;5.20;;;5.10;;
10096;SDS011;5087;42.662;23.466;2023-02-24T13:54:37;4.70;;;4.60;;
10096;SDS011;5087;42.662;23.466;2023-02-24T14:00:22;5.10;;;5.00;;
10096;SDS011;5087;42.662;23.466;2023-02-24T14:02:56;4.70;;;4.60;;
10096;SDS011;5087;42.662;23.466;2023-02-24T14:05:25;4.50;;;4.40;;
10096;SDS011;5087;42.662;23.466;2023-02-24T14:07:55;4.80;;;4.70;;
10096;SDS011;5087;42.662;23.466;2023-02-24T14:10:25;4.80;;;4.70;;
10096;SDS011;5087;42.662;23.466;2023-02-24T14:12:57;4.80;;;4.70;;
10096;SDS011;5087;42.662;23.466;2023-02-24T14:15:32;4.33;;;4.23;;
10096;SDS011;5087;42.662;23.466;2023-02-24T14:18:00;4.37;;;4.27;;
10096;SDS011;5087;42.662;23.466;2023-02-24T14:20:30;4.30;;;4.20;;
10096;SDS011;5087;42.662;23.466;2023-02-24T14:22:59;3.80;;;3.80;;
10096;SDS011;5087;42.662;23.466;2023-02-24T14:25:35;4.50;;;4.40;;
10096;SDS011;5087;42.662;23.466;2023-02-24T14:28:04;5.30;;;5.20;;
10096;SDS011;5087;42.662;23.466;2023-02-24T14:30:32;4.30;;;4.20;;
10096;SDS011;5087;42.662;23.466;2023-02-24T14:33:03;4.40;;;4.30;;
10096;SDS011;5087;42.662;23.466;2023-02-24T14:35:32;4.50;;;4.40;;
10096;SDS011;5087;42.662;23.466;2023-02-24T14:38:04;4.30;;;4.20;;
10096;SDS011;5087;42.662;23.466;2023-02-24T14:40:33;4.70;;;4.60;;
10096;SDS011;5087;42.662;23.466;2023-02-24T14:43:01;4.30;;;4.20;;
10096;SDS011;5087;42.662;23.466;2023-02-24T14:45:28;4.03;;;3.93;;
10096;SDS011;5087;42.662;23.466;2023-02-24T14:47:55;4.80;;;4.70;;
10096;SDS011;5087;42.662;23.466;2023-02-24T14:50:23;4.80;;;4.70;;
10096;SDS011;5087;42.662;23.466;2023-02-24T14:52:57;4.30;;;4.20;;
10096;SDS011;5087;42.662;23.466;2023-02-24T14:55:31;4.30;;;4.20;;
10096;SDS011;5087;42.662;23.466;2023-02-24T14:58:03;3.90;;;3.90;;
10096;SDS011;5087;42.662;23.466;2023-02-24T15:00:39;4.20;;;4.10;;
10096;SDS011;5087;42.662;23.466;2023-02-24T15:03:12;3.57;;;3.57;;
10096;SDS011;5087;42.662;23.466;2023-02-24T15:05:43;4.10;;;4.00;;
10096;SDS011;5087;42.662;23.466;2023-02-24T15:08:17;3.83;;;3.83;;
10096;SDS011;5087;42.662;23.466;2023-02-24T15:10:56;3.47;;;3.47;;
10096;SDS011;5087;42.662;23.466;2023-02-24T15:13:26;3.20;;;3.20;;
10096;SDS011;5087;42.662;23.466;2023-02-24T15:16:02;3.30;;;3.30;;
10096;SDS011;5087;42.662;23.466;2023-02-24T15:18:34;3.30;;;3.30;;
10096;SDS011;5087;42.662;23.466;2023-02-24T15:21:02;3.40;;;3.40;;
10096;SDS011;5087;42.662;23.466;2023-02-24T15:23:31;3.30;;;3.30;;
10096;SDS011;5087;42.662;23.466;2023-02-24T15:26:01;3.50;;;3.50;;
10096;SDS011;5087;42.662;23.466;2023-02-24T15:28:31;2.90;;;2.90;;
10096;SDS011;5087;42.662;23.466;2023-02-24T15:31:03;3.00;;;3.00;;
10096;SDS011;5087;42.662;23.466;2023-02-24T15:33:34;4.07;;;3.97;;
10096;SDS011;5087;42.662;23.466;2023-02-24T15:36:07;3.43;;;3.43;;